Time;durP1;ratioP1;P1;durP2;ratioP2;P2;SDS_P1;SDS_P2;PMS_P1;PMS_P2;Temp;Humidity;BMP_temperature;BMP_pressure;BME280_temperature;BME280_humidity;BME280_pressure;Samples;Min_cycle;Max_cycle;Signal;HPM_P1;HPM_P2
2021/07/31 00:01:08;;;;;;;11.40;10.23;;;18.70;99.90;;;;;;5020546;28;20523;-71
2021/07/31 00:03:34;;;;;;;12.18;10.15;;;18.70;99.90;;;;;;5016456;28;20026;-71
2021/07/31 00:06:01;;;;;;;16.85;9.88;;;18.70;99.90;;;;;;4996914;28;20076;-71
2021/07/31 00:08:28;;;;;;;12.77;10.35;;;18.70;99.90;;;;;;5002970;28;20022;-70
2021/07/31 00:10:54;;;;;;;10.55;9.32;;;18.50;99.90;;;;;;5016171;28;20025;-71
2021/07/31 00:13:20;;;;;;;11.68;9.93;;;18.50;99.90;;;;;;5016139;28;20486;-71
2021/07/31 00:15:46;;;;;;;11.10;10.05;;;18.50;99.90;;;;;;5014243;28;20029;-71
2021/07/31 00:18:11;;;;;;;12.02;10.27;;;18.50;99.90;;;;;;5015262;28;20022;-70
2021/07/31 00:20:37;;;;;;;11.80;10.60;;;18.60;99.90;;;;;;5015878;28;20034;-71
2021/07/31 00:23:04;;;;;;;12.82;10.23;;;18.70;99.90;;;;;;5015723;28;20030;-72
2021/07/31 00:25:30;;;;;;;12.23;10.48;;;18.90;99.90;;;;;;5018794;28;20042;-71
2021/07/31 00:27:55;;;;;;;10.88;9.73;;;18.90;99.90;;;;;;5016721;28;20022;-70
2021/07/31 00:30:25;;;;;;;11.60;10.40;;;18.90;99.90;;;;;;5018137;28;20021;-70
2021/07/31 00:32:51;;;;;;;10.32;9.23;;;19.00;99.90;;;;;;5016072;28;20435;-72
2021/07/31 00:35:17;;;;;;;13.27;9.38;;;19.00;99.90;;;;;;5014474;28;20480;-70
2021/07/31 00:37:43;;;;;;;11.88;9.40;;;18.90;99.90;;;;;;5014646;28;20026;-71
2021/07/31 00:40:09;;;;;;;10.70;9.60;;;18.90;99.90;;;;;;5013418;28;20105;-71
2021/07/31 00:42:43;;;;;;;12.63;9.82;;;19.00;99.90;;;;;;5014374;28;20036;-72
2021/07/31 00:45:10;;;;;;;11.15;9.20;;;19.00;99.90;;;;;;5013577;28;20446;-72
2021/07/31 00:47:36;;;;;;;12.32;10.02;;;19.00;99.90;;;;;;5014169;28;20061;-71
2021/07/31 00:50:02;;;;;;;11.43;9.60;;;18.90;99.90;;;;;;5014201;28;20143;-71
2021/07/31 00:52:28;;;;;;;13.05;9.75;;;19.00;99.90;;;;;;5014353;28;20666;-71
2021/07/31 00:54:55;;;;;;;10.68;9.48;;;18.80;99.90;;;;;;5012077;28;20033;-71
2021/07/31 00:57:22;;;;;;;11.10;9.82;;;18.90;99.90;;;;;;4977581;28;20030;-72
2021/07/31 00:59:49;;;;;;;12.20;9.82;;;19.00;99.90;;;;;;4996065;28;20034;-70
2021/07/31 01:02:15;;;;;;;10.98;9.77;;;18.90;99.90;;;;;;4996517;28;20041;-71
2021/07/31 01:04:41;;;;;;;13.80;9.70;;;18.80;99.90;;;;;;4992909;28;20030;-71
2021/07/31 01:07:07;;;;;;;11.77;9.63;;;18.80;99.90;;;;;;4994547;28;20053;-72
2021/07/31 01:09:32;;;;;;;12.40;10.63;;;18.80;99.90;;;;;;4994416;28;20034;-73
2021/07/31 01:11:59;;;;;;;12.00;9.45;;;18.80;99.90;;;;;;4994196;28;20022;-72
2021/07/31 01:14:24;;;;;;;10.90;9.80;;;18.80;99.90;;;;;;4976578;28;20121;-73
2021/07/31 01:16:50;;;;;;;9.93;9.02;;;18.70;99.90;;;;;;4994193;28;20106;-72
2021/07/31 01:19:16;;;;;;;10.88;8.88;;;18.70;99.90;;;;;;5001499;28;20022;-73
2021/07/31 01:21:43;;;;;;;12.38;9.20;;;18.70;99.90;;;;;;5012513;28;20050;-72
2021/07/31 01:24:11;;;;;;;12.05;10.07;;;18.70;99.90;;;;;;4997670;28;20140;-72
2021/07/31 01:26:43;;;;;;;10.50;9.27;;;18.70;99.90;;;;;;5010132;28;20045;-72
2021/07/31 01:29:10;;;;;;;16.10;8.68;;;18.70;99.90;;;;;;5018780;28;20022;-72
2021/07/31 01:31:37;;;;;;;14.07;9.57;;;18.60;99.90;;;;;;5023277;28;20021;-71
2021/07/31 01:34:03;;;;;;;10.30;8.88;;;18.60;99.90;;;;;;5015783;28;20116;-72
2021/07/31 01:36:29;;;;;;;14.43;8.80;;;18.60;99.90;;;;;;4995856;28;20396;-72
2021/07/31 01:38:59;;;;;;;9.60;8.60;;;18.70;99.90;;;;;;5013841;28;20032;-72
2021/07/31 01:41:26;;;;;;;10.63;9.63;;;18.70;99.90;;;;;;5013286;28;20026;-72
2021/07/31 01:43:52;;;;;;;11.80;9.48;;;18.80;99.90;;;;;;5013907;28;20037;-72
2021/07/31 01:46:19;;;;;;;17.25;9.30;;;18.80;99.90;;;;;;5012829;28;20049;-72
2021/07/31 01:48:45;;;;;;;9.80;8.68;;;18.90;99.90;;;;;;5013375;28;20506;-71
2021/07/31 01:51:11;;;;;;;13.00;9.38;;;18.80;99.90;;;;;;5013321;28;20030;-71
2021/07/31 01:53:37;;;;;;;9.82;8.93;;;18.90;99.90;;;;;;5013218;28;20025;-71
2021/07/31 01:56:04;;;;;;;9.38;8.07;;;18.90;99.90;;;;;;4994927;28;20112;-71
2021/07/31 01:58:29;;;;;;;14.10;7.05;;;18.90;99.90;;;;;;5013224;28;20384;-71
2021/07/31 02:00:56;;;;;;;10.25;5.68;;;18.80;99.90;;;;;;4995609;28;20033;-71
2021/07/31 02:03:22;;;;;;;10.88;5.80;;;18.80;99.90;;;;;;5012848;28;20045;-72
2021/07/31 02:05:48;;;;;;;7.60;5.70;;;18.70;99.90;;;;;;5012635;28;20109;-71
2021/07/31 02:08:14;;;;;;;9.23;5.70;;;18.70;99.90;;;;;;5012670;28;20212;-72
2021/07/31 02:10:40;;;;;;;7.00;5.20;;;18.70;99.90;;;;;;5012747;28;20022;-71
2021/07/31 02:13:05;;;;;;;5.78;5.18;;;18.80;99.90;;;;;;5013055;28;20096;-72
2021/07/31 02:15:31;;;;;;;8.98;5.13;;;18.80;99.90;;;;;;5012334;28;20380;-70
2021/07/31 02:17:57;;;;;;;6.80;4.75;;;18.70;99.90;;;;;;5013048;28;20030;-72
2021/07/31 02:20:23;;;;;;;7.45;3.70;;;18.70;99.90;;;;;;4994875;28;20026;-71
2021/07/31 02:22:50;;;;;;;8.30;3.45;;;18.60;99.90;;;;;;5014042;28;20073;-71
2021/07/31 02:25:16;;;;;;;8.18;4.00;;;18.60;99.90;;;;;;5012760;28;20057;-72
2021/07/31 02:27:43;;;;;;;4.13;3.30;;;18.60;99.90;;;;;;5013337;28;20030;-72
2021/07/31 02:30:09;;;;;;;8.07;3.80;;;18.60;99.90;;;;;;5013487;28;20022;-70
2021/07/31 02:32:35;;;;;;;6.53;3.17;;;18.60;99.90;;;;;;5012342;28;20436;-71
2021/07/31 02:35:01;;;;;;;5.35;3.85;;;18.50;99.90;;;;;;5011700;28;20018;-72
2021/07/31 02:37:26;;;;;;;5.10;3.75;;;18.50;99.90;;;;;;5012316;28;20029;-71
2021/07/31 02:39:52;;;;;;;6.15;4.10;;;18.50;99.90;;;;;;5012493;28;20025;-72
2021/07/31 02:42:18;;;;;;;5.30;3.92;;;18.40;99.90;;;;;;5023486;28;20038;-72
2021/07/31 02:44:43;;;;;;;5.72;3.95;;;18.30;99.90;;;;;;5021114;28;20017;-71
2021/07/31 02:47:09;;;;;;;5.00;3.60;;;18.40;99.90;;;;;;5021448;28;20076;-71
2021/07/31 02:49:34;;;;;;;5.38;3.22;;;18.40;99.90;;;;;;5018623;28;20082;-70
2021/07/31 02:52:00;;;;;;;7.75;4.35;;;18.40;99.90;;;;;;5015985;28;20033;-71
2021/07/31 02:54:26;;;;;;;8.45;3.58;;;18.30;99.90;;;;;;4993814;28;20053;-72
2021/07/31 02:56:51;;;;;;;8.57;4.57;;;18.30;99.90;;;;;;4993858;28;20023;-71
2021/07/31 02:59:17;;;;;;;8.77;4.30;;;18.10;99.90;;;;;;4992258;28;20095;-71
2021/07/31 03:01:43;;;;;;;4.15;3.75;;;18.00;99.90;;;;;;4990699;28;20030;-71
2021/07/31 03:04:08;;;;;;;5.63;3.47;;;17.90;99.90;;;;;;4996167;28;20050;-71
2021/07/31 03:06:34;;;;;;;6.80;4.03;;;17.80;99.90;;;;;;4995376;28;20022;-71
2021/07/31 03:08:59;;;;;;;7.18;3.55;;;17.60;99.90;;;;;;4995994;28;20030;-71
2021/07/31 03:11:25;;;;;;;10.55;4.20;;;17.50;99.90;;;;;;4995789;28;20030;-70
2021/07/31 03:13:51;;;;;;;4.40;3.72;;;17.50;99.90;;;;;;4996312;28;20026;-70
2021/07/31 03:16:16;;;;;;;8.13;4.38;;;17.40;99.90;;;;;;4995331;28;20035;-70
2021/07/31 03:18:42;;;;;;;8.48;4.20;;;17.30;99.90;;;;;;4996000;28;20476;-71
2021/07/31 03:21:11;;;;;;;6.90;4.05;;;17.20;99.90;;;;;;4996084;28;20025;-71
2021/07/31 03:23:36;;;;;;;6.03;4.20;;;17.10;99.90;;;;;;4995876;28;20049;-71
2021/07/31 03:26:03;;;;;;;11.20;4.60;;;17.00;99.90;;;;;;5005501;28;20077;-71
2021/07/31 03:28:29;;;;;;;6.57;4.50;;;16.90;99.90;;;;;;5015421;28;20105;-71
2021/07/31 03:30:56;;;;;;;5.80;4.93;;;16.90;99.90;;;;;;5015373;28;20081;-71
2021/07/31 03:33:22;;;;;;;7.20;4.65;;;16.80;99.90;;;;;;5015266;28;20076;-71
2021/07/31 03:35:48;;;;;;;10.57;4.45;;;16.70;99.90;;;;;;5014802;28;20022;-72
2021/07/31 03:38:13;;;;;;;8.48;4.57;;;16.70;99.90;;;;;;5015213;28;20025;-71
2021/07/31 03:40:39;;;;;;;9.88;4.70;;;16.60;99.90;;;;;;5014977;28;20034;-72
2021/07/31 03:43:05;;;;;;;7.32;4.63;;;16.50;99.90;;;;;;5015147;28;20033;-71
2021/07/31 03:45:30;;;;;;;12.70;4.88;;;16.40;99.90;;;;;;5014572;28;20377;-72
2021/07/31 03:47:56;;;;;;;5.38;4.85;;;16.30;99.90;;;;;;5015386;28;20500;-71
2021/07/31 03:50:22;;;;;;;8.98;4.75;;;16.30;99.90;;;;;;5014891;28;20041;-71
2021/07/31 03:52:47;;;;;;;10.15;5.40;;;16.20;99.90;;;;;;5014928;28;20025;-72
2021/07/31 03:55:13;;;;;;;7.80;5.57;;;16.20;99.90;;;;;;5014033;28;20026;-73
2021/07/31 03:57:39;;;;;;;8.02;4.90;;;16.10;99.90;;;;;;5014888;28;20030;-71
2021/07/31 04:00:06;;;;;;;7.68;4.75;;;16.00;99.90;;;;;;5014688;28;20628;-71
2021/07/31 04:02:32;;;;;;;5.80;4.60;;;16.00;99.90;;;;;;5014721;28;20018;-71
2021/07/31 04:04:58;;;;;;;6.18;4.72;;;15.90;99.90;;;;;;5013985;28;20072;-71
2021/07/31 04:07:25;;;;;;;5.93;4.30;;;15.90;99.90;;;;;;4996871;28;20026;-71
2021/07/31 04:09:51;;;;;;;8.00;5.00;;;15.90;99.90;;;;;;5014526;28;20109;-72
2021/07/31 04:12:17;;;;;;;9.43;5.07;;;15.80;99.90;;;;;;5014300;28;20488;-72
2021/07/31 04:14:43;;;;;;;7.38;5.45;;;15.80;99.90;;;;;;5012408;28;20037;-72
2021/07/31 04:17:09;;;;;;;6.75;5.32;;;15.80;99.90;;;;;;5014598;28;20105;-72
2021/07/31 04:19:34;;;;;;;8.07;4.72;;;15.80;99.90;;;;;;5014458;28;20032;-72
2021/07/31 04:22:00;;;;;;;11.02;4.85;;;15.80;99.90;;;;;;5014475;28;20037;-72
2021/07/31 04:24:26;;;;;;;4.53;3.92;;;15.70;99.90;;;;;;5013715;28;20022;-71
2021/07/31 04:26:52;;;;;;;5.95;3.63;;;15.70;99.90;;;;;;5013797;28;20125;-72
2021/07/31 04:29:18;;;;;;;7.15;4.22;;;15.60;99.90;;;;;;5014184;28;20044;-71
2021/07/31 04:31:45;;;;;;;6.60;3.70;;;15.70;99.90;;;;;;5014369;28;20512;-70
2021/07/31 04:34:10;;;;;;;6.10;4.53;;;15.70;99.90;;;;;;5014159;28;20022;-72
2021/07/31 04:36:36;;;;;;;14.30;5.00;;;15.80;99.90;;;;;;5011513;28;20515;-71
2021/07/31 04:39:03;;;;;;;7.18;4.25;;;15.80;99.90;;;;;;5011963;28;20408;-71
2021/07/31 04:41:29;;;;;;;7.80;4.20;;;15.70;99.90;;;;;;4992288;28;20034;-72
2021/07/31 04:43:55;;;;;;;4.63;3.92;;;15.70;99.90;;;;;;4983930;28;20513;-70
2021/07/31 04:46:21;;;;;;;13.27;5.07;;;15.70;99.90;;;;;;4992044;28;20030;-71
2021/07/31 04:48:46;;;;;;;9.75;4.97;;;15.80;99.90;;;;;;4983931;28;20412;-70
2021/07/31 04:51:13;;;;;;;6.68;4.90;;;15.80;99.90;;;;;;4973718;28;20039;-71
2021/07/31 04:53:39;;;;;;;5.50;4.28;;;15.80;99.90;;;;;;4974211;28;20033;-70
2021/07/31 04:56:05;;;;;;;8.43;4.88;;;15.80;99.90;;;;;;4995450;28;20025;-70
2021/07/31 04:58:31;;;;;;;6.22;5.00;;;15.80;99.90;;;;;;5013652;28;20392;-70
2021/07/31 05:00:59;;;;;;;6.75;4.47;;;15.80;99.90;;;;;;4996417;28;20518;-70
2021/07/31 05:03:25;;;;;;;10.75;5.35;;;15.80;99.90;;;;;;4974054;28;20341;-70
2021/07/31 05:05:51;;;;;;;8.73;4.97;;;15.80;99.90;;;;;;4973670;28;20034;-71
2021/07/31 05:08:17;;;;;;;7.78;5.32;;;15.80;99.90;;;;;;4974263;28;20029;-69
2021/07/31 05:10:44;;;;;;;7.00;5.40;;;15.90;99.90;;;;;;4974265;28;20026;-71
2021/07/31 05:13:11;;;;;;;6.95;4.70;;;16.00;99.90;;;;;;4973850;28;20466;-70
2021/07/31 05:15:38;;;;;;;6.88;5.13;;;15.90;99.90;;;;;;4973337;28;20044;-70
2021/07/31 05:18:04;;;;;;;8.85;5.15;;;16.10;99.90;;;;;;4974295;28;20034;-72
2021/07/31 05:20:30;;;;;;;7.95;4.40;;;16.10;99.90;;;;;;4973940;28;20034;-71
2021/07/31 05:22:56;;;;;;;8.52;4.90;;;16.20;99.90;;;;;;4974252;28;20039;-72
2021/07/31 05:25:22;;;;;;;7.18;4.75;;;16.20;99.90;;;;;;4979587;28;20029;-71
2021/07/31 05:27:47;;;;;;;12.05;5.47;;;16.20;99.90;;;;;;5013216;28;20395;-71
2021/07/31 05:30:13;;;;;;;8.32;5.00;;;16.40;99.90;;;;;;5012828;28;20032;-71
2021/07/31 05:32:39;;;;;;;7.95;5.22;;;16.30;99.90;;;;;;5012833;28;20026;-73
2021/07/31 05:35:05;;;;;;;7.18;5.38;;;16.40;99.90;;;;;;5001176;28;20019;-73
2021/07/31 05:37:32;;;;;;;11.15;5.35;;;16.40;99.90;;;;;;4975563;28;20501;-73
2021/07/31 05:40:01;;;;;;;8.55;5.20;;;16.40;99.90;;;;;;4993209;28;20072;-72
2021/07/31 05:42:27;;;;;;;10.18;5.20;;;16.40;99.90;;;;;;4992494;28;20385;-73
2021/07/31 05:44:57;;;;;;;10.85;5.15;;;16.50;99.90;;;;;;4991654;28;20488;-73
2021/07/31 05:47:25;;;;;;;8.70;5.15;;;16.60;99.90;;;;;;4993085;28;20026;-72
2021/07/31 05:49:52;;;;;;;5.78;4.05;;;16.70;99.90;;;;;;4992435;28;20029;-72
2021/07/31 05:52:18;;;;;;;11.43;4.95;;;16.80;99.90;;;;;;4994460;28;20037;-72
2021/07/31 05:54:44;;;;;;;9.00;4.50;;;16.80;99.90;;;;;;5000047;28;20540;-72
2021/07/31 05:57:09;;;;;;;8.75;4.55;;;16.90;99.90;;;;;;4992970;28;20022;-71
2021/07/31 05:59:35;;;;;;;8.45;4.60;;;17.10;99.90;;;;;;4992721;28;20029;-70
2021/07/31 06:02:01;;;;;;;9.13;4.40;;;17.10;99.90;;;;;;4992997;28;20022;-72
2021/07/31 06:04:27;;;;;;;8.15;4.72;;;17.20;99.90;;;;;;4991765;28;20400;-71
2021/07/31 06:06:52;;;;;;;5.68;4.47;;;17.20;99.90;;;;;;4992742;28;20022;-73
2021/07/31 06:09:18;;;;;;;9.25;4.60;;;17.20;99.90;;;;;;4992501;28;20022;-70
2021/07/31 06:11:43;;;;;;;8.38;4.57;;;17.30;99.90;;;;;;4991921;28;20480;-71
2021/07/31 06:14:09;;;;;;;8.25;4.10;;;17.30;99.90;;;;;;4991913;28;20046;-72
2021/07/31 06:16:35;;;;;;;10.88;4.32;;;17.70;99.90;;;;;;4991300;28;20026;-72
2021/07/31 06:19:00;;;;;;;4.85;3.90;;;17.90;99.90;;;;;;4991267;28;20022;-72
2021/07/31 06:21:26;;;;;;;6.13;3.60;;;18.00;99.90;;;;;;4991542;28;20029;-72
2021/07/31 06:23:51;;;;;;;5.35;3.60;;;18.10;99.90;;;;;;4991313;28;20026;-72
2021/07/31 06:26:17;;;;;;;7.60;3.47;;;18.30;99.90;;;;;;4985417;28;20037;-72
2021/07/31 06:28:43;;;;;;;5.72;3.17;;;18.50;99.90;;;;;;5011408;28;20149;-71
2021/07/31 06:31:08;;;;;;;5.90;3.10;;;18.60;99.90;;;;;;5012091;28;20029;-70
2021/07/31 06:33:34;;;;;;;5.13;3.08;;;18.80;99.90;;;;;;5011599;28;20034;-71
2021/07/31 06:36:00;;;;;;;5.82;2.90;;;18.90;99.90;;;;;;5011251;28;20033;-71
2021/07/31 06:38:25;;;;;;;4.50;2.40;;;18.80;99.90;;;;;;4978663;28;20022;-71
2021/07/31 06:40:51;;;;;;;5.15;3.00;;;18.90;99.90;;;;;;4972990;28;20548;-71
2021/07/31 06:43:16;;;;;;;9.43;2.85;;;18.90;99.90;;;;;;4973307;28;20030;-73
2021/07/31 06:45:42;;;;;;;5.22;2.17;;;19.00;99.90;;;;;;4980017;28;20030;-71
2021/07/31 06:48:08;;;;;;;7.57;2.92;;;18.90;99.90;;;;;;4993706;28;20091;-72
2021/07/31 06:50:36;;;;;;;7.32;2.40;;;19.00;99.90;;;;;;4993241;28;20094;-73
2021/07/31 06:53:02;;;;;;;9.88;2.33;;;19.00;99.90;;;;;;4980304;28;20393;-72
2021/07/31 06:55:27;;;;;;;6.20;2.10;;;19.10;99.90;;;;;;4989911;28;20038;-73
2021/07/31 06:57:53;;;;;;;5.05;2.00;;;19.10;99.90;;;;;;4998099;28;20110;-73
2021/07/31 07:00:19;;;;;;;5.53;2.13;;;19.10;99.90;;;;;;4974887;28;20121;-72
2021/07/31 07:02:44;;;;;;;3.65;1.92;;;19.10;99.90;;;;;;4992033;28;20034;-72
2021/07/31 07:05:10;;;;;;;6.68;1.83;;;19.20;99.90;;;;;;4991029;28;20038;-71
2021/07/31 07:07:37;;;;;;;6.15;1.88;;;19.20;99.90;;;;;;4992326;28;20531;-71
2021/07/31 07:10:03;;;;;;;5.28;1.63;;;19.40;99.90;;;;;;4974206;28;20030;-73
2021/07/31 07:12:29;;;;;;;9.00;2.20;;;19.50;99.90;;;;;;4992038;28;20033;-71
2021/07/31 07:14:55;;;;;;;6.57;1.70;;;19.60;99.90;;;;;;4991142;28;20031;-71
2021/07/31 07:17:21;;;;;;;7.30;2.17;;;19.80;99.90;;;;;;4991547;28;20109;-73
2021/07/31 07:19:46;;;;;;;4.80;1.67;;;19.60;99.90;;;;;;4992153;28;20061;-72
2021/07/31 07:22:12;;;;;;;3.95;1.90;;;19.70;99.90;;;;;;4991800;28;20114;-72
2021/07/31 07:24:38;;;;;;;10.68;2.50;;;19.80;99.90;;;;;;4990814;28;20591;-72
2021/07/31 07:27:04;;;;;;;7.80;2.03;;;19.90;99.90;;;;;;5010353;28;20509;-71
2021/07/31 07:29:29;;;;;;;4.60;1.88;;;20.00;99.90;;;;;;5013132;28;20033;-72
2021/07/31 07:31:55;;;;;;;6.18;1.95;;;20.10;99.90;;;;;;5014307;28;20396;-70
2021/07/31 07:34:21;;;;;;;9.77;2.10;;;20.20;99.90;;;;;;5010790;28;20519;-71
2021/07/31 07:36:47;;;;;;;5.93;1.73;;;20.40;99.90;;;;;;5004808;28;20022;-70
2021/07/31 07:39:13;;;;;;;4.88;1.83;;;20.40;99.90;;;;;;4972311;28;20105;-72
2021/07/31 07:41:38;;;;;;;6.80;2.05;;;20.20;99.90;;;;;;4972262;28;20555;-71
2021/07/31 07:44:05;;;;;;;6.28;2.05;;;20.00;99.90;;;;;;4972466;28;20023;-71
2021/07/31 07:46:30;;;;;;;5.32;1.88;;;20.20;99.90;;;;;;4971115;28;20033;-71
2021/07/31 07:48:56;;;;;;;3.00;1.90;;;20.20;99.90;;;;;;4973412;28;20035;-71
2021/07/31 07:51:21;;;;;;;6.55;1.75;;;20.50;99.90;;;;;;4976343;28;20027;-70
2021/07/31 07:53:47;;;;;;;6.78;1.88;;;20.90;99.90;;;;;;4975964;28;20106;-70
2021/07/31 07:56:13;;;;;;;6.85;2.13;;;20.80;99.90;;;;;;4987222;28;20026;-70
2021/07/31 07:58:38;;;;;;;7.70;2.03;;;20.60;99.90;;;;;;4995430;28;20022;-71
2021/07/31 08:01:08;;;;;;;3.92;1.90;;;20.50;99.90;;;;;;4995191;28;20030;-70
2021/07/31 08:03:34;;;;;;;6.40;2.28;;;20.50;99.90;;;;;;4995207;28;20054;-70
2021/07/31 08:06:00;;;;;;;5.82;1.63;;;20.80;99.90;;;;;;4994805;28;20068;-70
2021/07/31 08:08:26;;;;;;;9.57;2.00;;;20.70;99.90;;;;;;4994964;28;20097;-71
2021/07/31 08:10:52;;;;;;;11.48;2.53;;;20.80;99.90;;;;;;4995370;28;20026;-71
2021/07/31 08:13:18;;;;;;;8.10;2.60;;;20.80;99.90;;;;;;4995301;28;20029;-70
2021/07/31 08:15:44;;;;;;;4.75;2.17;;;20.80;99.90;;;;;;4994476;28;20052;-72
2021/07/31 08:18:11;;;;;;;7.55;1.63;;;20.70;99.90;;;;;;4994940;28;20481;-70
2021/07/31 08:20:37;;;;;;;5.32;1.40;;;20.80;99.90;;;;;;4995267;28;20507;-70
2021/07/31 08:23:03;;;;;;;4.25;1.65;;;21.00;99.90;;;;;;4977310;28;20030;-72
2021/07/31 08:25:29;;;;;;;4.03;1.35;;;21.20;99.90;;;;;;4988456;28;20039;-71
2021/07/31 08:27:55;;;;;;;6.15;1.80;;;20.80;99.90;;;;;;4975408;28;20018;-69
2021/07/31 08:30:21;;;;;;;6.03;1.70;;;20.80;99.90;;;;;;4975390;28;20054;-70
2021/07/31 08:32:47;;;;;;;4.03;1.77;;;21.20;99.90;;;;;;4974294;28;20027;-73
2021/07/31 08:35:13;;;;;;;5.80;1.73;;;21.30;99.90;;;;;;4974706;28;20029;-71
2021/07/31 08:37:39;;;;;;;4.80;1.60;;;21.40;99.90;;;;;;4985243;28;20030;-73
2021/07/31 08:40:10;;;;;;;3.47;1.40;;;21.70;99.90;;;;;;4994822;28;20030;-74
2021/07/31 08:42:37;;;;;;;4.63;1.30;;;22.20;99.90;;;;;;4976899;28;20401;-72
2021/07/31 08:45:04;;;;;;;8.00;1.52;;;23.20;99.90;;;;;;4993316;28;20026;-71
2021/07/31 08:47:32;;;;;;;2.95;1.13;;;23.90;99.90;;;;;;4994246;28;20357;-68
2021/07/31 08:49:58;;;;;;;7.65;1.65;;;24.00;99.90;;;;;;4994367;28;20089;-69
2021/07/31 08:52:25;;;;;;;4.15;1.55;;;24.20;99.90;;;;;;4994359;28;20026;-71
2021/07/31 08:54:51;;;;;;;6.80;1.30;;;23.90;99.90;;;;;;4994361;28;20018;-71
2021/07/31 08:57:17;;;;;;;4.72;1.60;;;24.30;99.90;;;;;;5012880;28;20420;-69
2021/07/31 08:59:44;;;;;;;9.45;1.48;;;24.80;99.90;;;;;;5012923;28;20372;-69
2021/07/31 09:02:10;;;;;;;3.72;1.10;;;25.30;99.20;;;;;;5012452;28;20030;-70
2021/07/31 09:04:44;;;;;;;3.72;1.45;;;25.30;98.90;;;;;;5012742;28;20101;-71
2021/07/31 09:07:14;;;;;;;4.75;1.60;;;25.40;97.80;;;;;;5013509;28;20491;-70
2021/07/31 09:09:40;;;;;;;14.40;1.88;;;24.50;97.80;;;;;;5013466;28;20476;-70
2021/07/31 09:12:08;;;;;;;4.95;1.48;;;24.00;99.90;;;;;;5013619;28;20075;-70
2021/07/31 09:14:36;;;;;;;2.33;1.02;;;23.80;98.80;;;;;;5012314;28;20484;-72
2021/07/31 09:17:02;;;;;;;4.68;1.80;;;23.80;98.80;;;;;;5013276;28;20018;-71
2021/07/31 09:19:28;;;;;;;3.97;1.30;;;24.50;98.00;;;;;;5013223;28;20057;-70
2021/07/31 09:22:07;;;;;;;2.92;1.10;;;23.80;98.00;;;;;;5013739;28;20123;-70
2021/07/31 09:24:34;;;;;;;3.33;1.20;;;24.10;99.40;;;;;;5012467;28;20026;-70
2021/07/31 09:27:00;;;;;;;14.68;1.98;;;23.40;98.00;;;;;;5012740;28;20033;-72
2021/07/31 09:29:28;;;;;;;4.85;1.73;;;22.70;99.70;;;;;;4995578;28;20022;-71
2021/07/31 09:32:02;;;;;;;3.78;1.15;;;23.10;99.40;;;;;;5012372;28;20053;-70
2021/07/31 09:34:46;;;;;;;5.82;1.60;;;23.50;98.80;;;;;;5012762;28;20033;-70
2021/07/31 09:37:24;;;;;;;7.88;1.75;;;24.80;98.60;;;;;;5000606;28;20811;-69
2021/07/31 09:39:59;;;;;;;3.67;1.52;;;25.90;97.20;;;;;;4974994;28;20022;-71
2021/07/31 09:42:35;;;;;;;2.85;1.05;;;25.30;94.30;;;;;;4975524;28;20023;-70
2021/07/31 09:45:13;;;;;;;5.25;1.45;;;25.70;94.60;;;;;;4974658;28;20027;-70
2021/07/31 09:48:04;;;;;;;2.53;1.15;;;25.50;92.70;;;;;;4975112;28;20138;-70
2021/07/31 09:50:40;;;;;;;2.53;1.00;;;25.60;92.70;;;;;;4975964;28;20053;-69
2021/07/31 09:53:13;;;;;;;2.38;1.00;;;25.00;93.40;;;;;;4981081;28;20098;-71
2021/07/31 09:55:49;;;;;;;6.03;1.25;;;24.00;95.10;;;;;;4980509;28;20023;-71
2021/07/31 09:58:19;;;;;;;3.72;1.40;;;25.20;95.30;;;;;;4976157;28;20469;-75
2021/07/31 10:00:47;;;;;;;2.10;1.27;;;25.70;93.70;;;;;;4973028;28;20383;-71
2021/07/31 10:03:14;;;;;;;4.07;1.58;;;25.70;92.10;;;;;;4974478;28;20023;-72
2021/07/31 10:05:41;;;;;;;4.57;1.58;;;25.50;93.00;;;;;;4972823;28;20027;-72
2021/07/31 10:08:07;;;;;;;2.53;1.35;;;25.90;92.00;;;;;;4988771;28;20023;-73
2021/07/31 10:10:34;;;;;;;3.03;0.93;;;25.50;91.60;;;;;;4992368;28;20026;-71
2021/07/31 10:13:00;;;;;;;2.70;1.27;;;25.70;92.00;;;;;;4992392;28;20085;-72
2021/07/31 10:15:26;;;;;;;2.17;1.00;;;27.20;92.30;;;;;;4993930;28;20030;-71
2021/07/31 10:17:53;;;;;;;2.05;1.20;;;26.40;89.50;;;;;;4993273;28;20452;-71
2021/07/31 10:20:26;;;;;;;3.78;1.40;;;25.50;91.80;;;;;;4993043;28;20030;-71
2021/07/31 10:22:52;;;;;;;7.95;1.10;;;26.30;91.00;;;;;;4975531;28;20030;-72
2021/07/31 10:25:19;;;;;;;2.88;1.17;;;27.50;88.40;;;;;;4996794;28;20520;-73
2021/07/31 10:27:45;;;;;;;5.80;1.45;;;27.50;84.10;;;;;;4994906;28;20022;-72
2021/07/31 10:30:34;;;;;;;6.82;1.25;;;26.50;85.20;;;;;;5011130;28;20041;-72
2021/07/31 10:33:01;;;;;;;5.60;1.20;;;25.80;87.90;;;;;;4994306;28;20041;-72
2021/07/31 10:35:35;;;;;;;1.58;1.10;;;26.10;88.00;;;;;;5011609;28;20033;-75
2021/07/31 10:38:04;;;;;;;2.33;0.90;;;26.30;88.40;;;;;;4988740;28;20151;-73
2021/07/31 10:40:41;;;;;;;4.85;1.08;;;27.00;85.10;;;;;;4978097;28;20646;-71
2021/07/31 10:43:09;;;;;;;2.83;1.17;;;27.50;84.50;;;;;;4976210;28;20022;-71
2021/07/31 10:45:35;;;;;;;5.25;1.20;;;27.80;81.00;;;;;;4972199;28;20034;-72
2021/07/31 10:48:02;;;;;;;2.53;1.42;;;26.00;83.70;;;;;;4973142;28;20094;-73
2021/07/31 10:50:29;;;;;;;3.65;1.00;;;25.80;86.60;;;;;;4972999;28;20699;-72
2021/07/31 10:53:12;;;;;;;3.72;1.00;;;25.40;83.30;;;;;;4973260;28;20492;-72
2021/07/31 10:55:38;;;;;;;6.85;1.17;;;25.20;85.90;;;;;;4981766;28;20096;-71
2021/07/31 10:58:18;;;;;;;3.33;1.08;;;25.80;84.20;;;;;;5011337;28;20026;-73
2021/07/31 11:00:49;;;;;;;4.13;1.20;;;26.20;83.50;;;;;;5011969;28;20029;-71
2021/07/31 11:03:20;;;;;;;1.63;1.13;;;26.30;84.20;;;;;;5011971;28;20420;-72
2021/07/31 11:05:49;;;;;;;2.40;1.50;;;26.50;82.60;;;;;;5011637;28;20396;-72
2021/07/31 11:08:27;;;;;;;2.85;1.23;;;25.60;83.90;;;;;;5011943;28;20026;-72
2021/07/31 11:10:55;;;;;;;3.90;1.08;;;26.40;85.50;;;;;;5011743;28;20042;-71
2021/07/31 11:13:20;;;;;;;2.15;1.00;;;26.20;82.20;;;;;;5011672;28;20018;-71
2021/07/31 11:16:06;;;;;;;3.67;1.52;;;26.10;85.40;;;;;;4993153;28;20519;-71
2021/07/31 11:18:38;;;;;;;3.95;0.90;;;26.30;83.20;;;;;;5011731;28;20025;-70
2021/07/31 11:21:17;;;;;;;3.17;1.10;;;27.00;84.10;;;;;;5011623;28;20057;-74
2021/07/31 11:23:53;;;;;;;5.15;1.10;;;27.80;80.80;;;;;;4995513;28;20029;-72
2021/07/31 11:26:42;;;;;;;2.55;1.13;;;28.30;78.10;;;;;;5014760;28;20080;-73
2021/07/31 11:29:13;;;;;;;2.63;1.25;;;27.80;74.90;;;;;;5009669;28;20485;-72
2021/07/31 11:31:40;;;;;;;7.20;1.25;;;26.20;79.20;;;;;;5015383;28;20037;-72
2021/07/31 11:34:08;;;;;;;4.30;1.08;;;26.00;82.40;;;;;;4997720;28;20065;-71
2021/07/31 11:36:42;;;;;;;4.30;1.30;;;26.40;82.40;;;;;;5011455;28;20029;-71
2021/07/31 11:39:10;;;;;;;2.40;1.08;;;26.20;85.60;;;;;;4990727;23;20444;-72
2021/07/31 11:41:43;;;;;;;2.33;1.05;;;27.00;84.90;;;;;;5004440;28;20129;-72
2021/07/31 11:44:23;;;;;;;5.90;1.00;;;27.20;80.00;;;;;;5014743;28;20034;-72
2021/07/31 11:46:49;;;;;;;4.72;1.50;;;26.60;79.00;;;;;;5014955;28;20068;-72
2021/07/31 11:49:28;;;;;;;1.92;1.30;;;26.00;82.30;;;;;;5014881;28;20156;-72
2021/07/31 11:51:55;;;;;;;2.90;1.27;;;26.20;80.70;;;;;;5014658;28;20041;-71
2021/07/31 11:54:21;;;;;;;6.55;1.48;;;25.50;81.40;;;;;;5013487;28;20025;-71
2021/07/31 11:56:47;;;;;;;7.88;1.40;;;25.80;83.70;;;;;;5013976;28;20022;-71
2021/07/31 11:59:22;;;;;;;4.35;1.10;;;26.40;82.70;;;;;;5014133;28;20028;-70
2021/07/31 12:01:48;;;;;;;1.75;1.20;;;27.10;79.70;;;;;;5014146;28;20045;-72
2021/07/31 12:04:14;;;;;;;2.03;1.20;;;27.40;76.90;;;;;;5014413;28;20057;-72
2021/07/31 12:06:44;;;;;;;5.50;1.05;;;27.10;76.40;;;;;;5014261;28;20480;-72
2021/07/31 12:09:20;;;;;;;4.40;1.33;;;27.50;80.40;;;;;;5014376;28;20113;-73
2021/07/31 12:11:47;;;;;;;4.18;1.20;;;28.90;80.20;;;;;;4994314;28;20380;-72
2021/07/31 12:14:35;;;;;;;2.95;1.20;;;29.20;74.70;;;;;;4994232;28;20092;-71
2021/07/31 12:17:17;;;;;;;1.27;1.10;;;29.90;77.20;;;;;;4994898;28;20064;-71
2021/07/31 12:19:44;;;;;;;2.28;1.10;;;29.50;69.20;;;;;;4994828;28;20022;-72
2021/07/31 12:22:12;;;;;;;1.60;0.85;;;28.80;71.10;;;;;;4994829;28;20030;-74
2021/07/31 12:24:37;;;;;;;1.95;1.20;;;29.10;74.00;;;;;;4993689;28;20030;-74
2021/07/31 12:27:03;;;;;;;5.68;1.80;;;29.70;70.50;;;;;;4994481;28;20033;-74
2021/07/31 12:29:47;;;;;;;2.83;1.13;;;28.80;72.60;;;;;;4994517;28;20133;-73
2021/07/31 12:32:24;;;;;;;2.58;0.93;;;29.40;71.90;;;;;;4994525;28;20438;-71
2021/07/31 12:34:51;;;;;;;2.45;1.00;;;29.60;70.40;;;;;;4975099;28;20026;-73
2021/07/31 12:37:17;;;;;;;2.22;1.30;;;29.50;71.10;;;;;;5001452;28;20511;-72
2021/07/31 12:39:43;;;;;;;10.85;1.55;;;29.00;72.00;;;;;;5008563;28;20065;-73
2021/07/31 12:42:09;;;;;;;8.15;1.50;;;28.60;73.10;;;;;;4999586;28;20026;-73
2021/07/31 12:44:36;;;;;;;5.25;1.15;;;28.30;74.30;;;;;;5002891;28;20105;-73
2021/07/31 12:47:02;;;;;;;5.40;1.08;;;27.90;74.70;;;;;;5006148;28;20014;-73